Labelle, Idaho
Current Conditions -  °F | °C
As of 1:53 PM on Thursday 23 Oct 2014 (Local Time) from KRXE Reporting Station
Overcast Overcast  
Wind Chill: 60°   Ceiling: 11000
Heat Index: 60°   Visibility: 10mi
Dew Point: 30°   Wind: 17mph
Humidity: 32%   Direction: 200°SSW
Pressure: 30.09"   Gusts: NA
Location:  43.6749°N, 111.89°W
Report Text: KRXE 231953Z AUTO 20015KT 10SM OVC110 16/M01 A3009 RMK AO2 SLP181 T01561011
Loading
Personal Weather Stations






























Interactive Weather Map
Tropical Storm Tracking
New forecast layout! Learn more

10-Day Weather Forecast

Advertisements
Track Severe Weather on mobile